createdAt,value
2023-01-13T00:01:26.472Z,11.00
2023-01-13T00:03:55.384Z,11.00
2023-01-13T00:06:25.948Z,11.00
2023-01-13T00:08:55.136Z,10.90
2023-01-13T00:11:22.747Z,10.90
2023-01-13T00:13:49.472Z,11.10
2023-01-13T00:16:21.207Z,11.10
2023-01-13T00:18:48.670Z,11.00
2023-01-13T00:21:19.631Z,10.90
2023-01-13T00:23:46.573Z,11.00
2023-01-13T00:26:18.617Z,11.00
2023-01-13T00:28:45.215Z,11.00
2023-01-13T00:31:16.740Z,11.10
2023-01-13T00:33:45.598Z,11.00
2023-01-13T00:36:16.023Z,11.10
2023-01-13T00:38:45.784Z,11.00
2023-01-13T00:41:14.662Z,11.20
2023-01-13T00:43:44.495Z,11.20
2023-01-13T00:46:13.557Z,11.10
2023-01-13T00:54:09.575Z,11.10
2023-01-13T01:01:55.500Z,11.00
2023-01-13T01:04:25.224Z,11.10
2023-01-13T01:06:54.103Z,11.10
2023-01-13T01:09:22.941Z,11.10
2023-01-13T01:11:49.695Z,11.10
2023-01-13T01:14:16.409Z,11.10
2023-01-13T01:16:43.086Z,11.10
2023-01-13T01:19:13.040Z,11.20
2023-01-13T01:21:40.104Z,11.20
2023-01-13T01:24:07.131Z,11.20
2023-01-13T01:26:33.863Z,11.20
2023-01-13T01:29:02.202Z,11.10
2023-01-13T01:31:32.034Z,11.20
2023-01-13T01:33:59.388Z,11.20
2023-01-13T01:36:29.845Z,11.20
2023-01-13T01:38:58.503Z,11.20
2023-01-13T01:41:30.418Z,11.20
2023-01-13T01:43:59.496Z,11.20
2023-01-13T01:46:33.691Z,11.20
2023-01-13T01:49:23.377Z,11.20
2023-01-13T01:51:59.482Z,11.20
2023-01-13T01:54:31.897Z,11.20
2023-01-13T01:56:58.931Z,11.20
2023-01-13T01:59:29.918Z,11.20
2023-01-13T02:01:56.737Z,11.30
2023-01-13T02:04:35.356Z,11.20
2023-01-13T02:07:03.320Z,11.20
2023-01-13T02:09:33.240Z,11.20
2023-01-13T02:12:18.398Z,11.20
2023-01-13T02:14:47.583Z,11.30
2023-01-13T02:17:46.376Z,11.30
2023-01-13T02:20:25.426Z,11.20
2023-01-13T02:23:30.045Z,11.20
2023-01-13T02:26:31.234Z,11.30
2023-01-13T02:29:41.437Z,11.30
2023-01-13T02:32:23.856Z,11.30
2023-01-13T02:35:16.199Z,11.40
2023-01-13T02:37:43.645Z,11.30
2023-01-13T02:40:26.787Z,11.20
2023-01-13T02:43:37.231Z,11.10
2023-01-13T02:46:15.403Z,11.10
2023-01-13T02:48:45.935Z,11.10
2023-01-13T02:51:17.016Z,11.20
2023-01-13T02:53:50.679Z,11.40
2023-01-13T02:56:18.256Z,11.40
2023-01-13T02:58:47.041Z,11.30
2023-01-13T03:01:13.872Z,11.30
2023-01-13T03:03:44.547Z,11.30
2023-01-13T03:06:26.494Z,11.30
2023-01-13T03:09:14.760Z,11.30
2023-01-13T03:12:04.970Z,11.30
2023-01-13T03:15:03.496Z,11.30
2023-01-13T03:17:44.987Z,11.20
2023-01-13T03:20:39.525Z,11.20
2023-01-13T03:23:40.064Z,11.20
2023-01-13T03:26:22.355Z,11.10
2023-01-13T03:29:32.012Z,11.10
2023-01-13T03:32:05.943Z,11.10
2023-01-13T03:34:45.842Z,11.10
2023-01-13T03:37:15.170Z,11.20
2023-01-13T03:39:50.243Z,11.20
2023-01-13T03:42:24.752Z,11.20
2023-01-13T03:45:06.619Z,11.30
2023-01-13T03:47:35.727Z,11.20
2023-01-13T03:50:22.693Z,11.20
2023-01-13T03:52:57.651Z,11.20
2023-01-13T03:55:37.890Z,11.20
2023-01-13T03:58:20.550Z,11.30
2023-01-13T04:00:58.630Z,11.20
2023-01-13T04:03:39.982Z,11.30
2023-01-13T04:06:32.494Z,11.30
2023-01-13T04:09:16.615Z,11.30
2023-01-13T04:11:51.654Z,11.30
2023-01-13T04:14:24.544Z,11.40
2023-01-13T04:16:51.445Z,11.40
2023-01-13T04:19:18.415Z,11.50
2023-01-13T04:21:45.213Z,11.40
2023-01-13T04:24:12.030Z,11.30
2023-01-13T04:26:38.770Z,11.30
2023-01-13T04:29:05.524Z,11.20
2023-01-13T04:31:32.246Z,11.30
2023-01-13T04:33:58.959Z,11.20
2023-01-13T04:36:27.625Z,11.30
2023-01-13T04:38:57.445Z,11.20
2023-01-13T04:41:26.552Z,11.20
2023-01-13T04:43:53.412Z,11.10
2023-01-13T04:46:20.198Z,11.10
2023-01-13T04:48:47.027Z,11.10
2023-01-13T04:51:15.871Z,11.10
2023-01-13T04:53:42.600Z,11.10
2023-01-13T04:56:09.280Z,11.20
2023-01-13T04:58:40.684Z,11.20
2023-01-13T05:01:07.435Z,11.20
2023-01-13T05:03:34.176Z,11.20
2023-01-13T05:06:03.255Z,11.10
2023-01-13T05:08:29.977Z,11.10
2023-01-13T05:11:00.593Z,11.20
2023-01-13T05:13:46.003Z,11.20
2023-01-13T05:16:31.661Z,11.20
2023-01-13T05:18:58.450Z,11.20
2023-01-13T05:21:43.871Z,11.20
2023-01-13T05:24:31.369Z,11.10
2023-01-13T05:26:58.103Z,11.20
2023-01-13T05:29:29.606Z,11.10
2023-01-13T05:31:56.358Z,11.20
2023-01-13T05:34:23.093Z,11.20
2023-01-13T05:36:49.778Z,11.20
2023-01-13T05:39:18.654Z,11.20
2023-01-13T05:42:03.968Z,11.20
2023-01-13T05:44:30.655Z,11.30
2023-01-13T05:46:57.495Z,11.30
2023-01-13T05:49:25.985Z,11.30
2023-01-13T05:51:52.761Z,11.30
2023-01-13T05:54:21.981Z,11.20
2023-01-13T05:56:48.738Z,11.30
2023-01-13T05:59:15.413Z,11.30
2023-01-13T06:01:42.133Z,11.40
2023-01-13T06:04:08.982Z,11.40
2023-01-13T06:06:37.970Z,11.30
2023-01-13T06:09:07.178Z,11.30
2023-01-13T06:11:33.958Z,11.40
2023-01-13T06:14:00.720Z,11.50
2023-01-13T06:16:29.706Z,11.40
2023-01-13T06:18:58.888Z,11.40
2023-01-13T06:21:27.723Z,11.30
2023-01-13T06:23:58.877Z,11.40
2023-01-13T06:26:31.522Z,11.40
2023-01-13T06:28:58.226Z,11.30
2023-01-13T06:31:30.068Z,11.30
2023-01-13T06:34:11.041Z,11.30
2023-01-13T06:36:42.377Z,11.30
2023-01-13T06:39:10.880Z,11.20
2023-01-13T06:41:56.479Z,11.20
2023-01-13T06:44:24.392Z,11.30
2023-01-13T06:46:52.187Z,11.30
2023-01-13T06:49:21.828Z,11.20
2023-01-13T06:51:48.798Z,11.10
2023-01-13T06:54:17.834Z,11.30
2023-01-13T06:56:44.536Z,11.30
2023-01-13T06:59:14.015Z,11.20
2023-01-13T07:01:40.822Z,11.20
2023-01-13T07:04:09.884Z,11.20
2023-01-13T07:06:36.611Z,11.30
2023-01-13T07:09:04.617Z,11.30
2023-01-13T07:11:32.230Z,11.30
2023-01-13T07:14:19.137Z,11.20
2023-01-13T07:16:46.246Z,11.20
2023-01-13T07:19:13.238Z,11.20
2023-01-13T07:21:39.913Z,11.20
2023-01-13T07:24:06.953Z,11.30
2023-01-13T07:26:33.648Z,11.30
2023-01-13T07:29:02.619Z,11.30
2023-01-13T07:31:29.824Z,11.30
2023-01-13T07:33:56.598Z,11.30
2023-01-13T07:36:23.292Z,11.30
2023-01-13T07:38:50.039Z,11.50
2023-01-13T07:41:40.365Z,11.60
2023-01-13T07:44:07.379Z,11.50
2023-01-13T07:46:38.713Z,11.50
2023-01-13T07:49:06.252Z,11.50
2023-01-13T07:51:37.117Z,11.60
2023-01-13T07:54:04.017Z,11.50
2023-01-13T07:56:33.359Z,11.50
2023-01-13T07:59:02.906Z,11.50
2023-01-13T08:01:31.883Z,11.50
2023-01-13T08:03:59.066Z,11.40
2023-01-13T08:06:26.780Z,11.40
2023-01-13T08:08:53.961Z,11.60
2023-01-13T08:11:23.381Z,11.70
2023-01-13T08:13:50.488Z,11.70
2023-01-13T08:16:17.386Z,11.70
2023-01-13T08:18:44.201Z,11.70
2023-01-13T08:21:16.003Z,11.70
2023-01-13T08:23:44.564Z,11.70
2023-01-13T08:26:14.945Z,11.60
2023-01-13T08:28:41.781Z,11.70
2023-01-13T08:31:19.832Z,11.70
2023-01-13T08:33:49.272Z,11.70
2023-01-13T08:36:16.380Z,11.70
2023-01-13T08:38:45.351Z,11.80
2023-01-13T08:41:14.283Z,11.70
2023-01-13T08:43:43.543Z,11.80
2023-01-13T08:46:10.408Z,11.80
2023-01-13T08:48:39.340Z,11.70
2023-01-13T08:51:08.850Z,11.90
2023-01-13T08:53:35.924Z,12.00
2023-01-13T08:56:13.075Z,12.00
2023-01-13T08:58:42.115Z,12.10
2023-01-13T09:01:11.392Z,12.00
2023-01-13T09:03:41.851Z,12.00
2023-01-13T09:06:09.036Z,11.90
2023-01-13T09:08:35.794Z,11.80
2023-01-13T09:11:22.691Z,11.60
2023-01-13T09:13:49.597Z,11.50
2023-01-13T09:16:18.931Z,11.40
2023-01-13T09:18:45.624Z,11.40
2023-01-13T09:21:15.370Z,11.50
2023-01-13T09:23:42.144Z,11.50
2023-01-13T09:26:09.812Z,11.50
2023-01-13T09:28:38.882Z,11.50
2023-01-13T09:31:05.755Z,11.60
2023-01-13T09:33:53.324Z,11.50
2023-01-13T09:36:20.182Z,11.50
2023-01-13T09:38:48.866Z,11.50
2023-01-13T09:41:43.147Z,11.50
2023-01-13T09:44:19.146Z,11.50
2023-01-13T09:46:53.522Z,11.30
2023-01-13T09:49:39.939Z,11.10
2023-01-13T09:52:24.146Z,10.80
2023-01-13T09:55:11.474Z,10.50
2023-01-13T09:57:41.285Z,10.40
2023-01-13T10:00:22.326Z,10.40
2023-01-13T10:03:09.389Z,10.30
2023-01-13T10:05:39.282Z,10.40
2023-01-13T10:08:12.373Z,10.40
2023-01-13T10:10:46.089Z,10.40
2023-01-13T10:13:23.872Z,10.50
2023-01-13T10:15:56.548Z,10.50
2023-01-13T10:18:26.431Z,10.50
2023-01-13T10:21:04.720Z,10.50
2023-01-13T10:23:46.738Z,10.50
2023-01-13T10:26:25.104Z,10.50
2023-01-13T10:28:53.889Z,10.60
2023-01-13T10:31:22.149Z,10.60
2023-01-13T10:33:59.784Z,10.50
2023-01-13T10:36:26.643Z,10.30
2023-01-13T10:39:07.553Z,10.30
2023-01-13T10:41:36.708Z,10.20
2023-01-13T10:44:09.411Z,10.20
2023-01-13T10:46:54.332Z,10.00
2023-01-13T10:49:26.860Z,9.70
2023-01-13T10:51:53.612Z,9.50
2023-01-13T10:54:24.662Z,9.50
2023-01-13T10:57:20.278Z,9.50
2023-01-13T10:59:48.127Z,9.50
2023-01-13T11:02:26.547Z,9.50
2023-01-13T11:04:53.695Z,9.50
2023-01-13T11:07:34.547Z,9.50
2023-01-13T11:10:28.855Z,9.50
2023-01-13T11:13:11.378Z,9.50
2023-01-13T11:16:01.702Z,9.60
2023-01-13T11:19:02.034Z,9.70
2023-01-13T11:21:38.868Z,9.70
2023-01-13T11:24:40.190Z,9.70
2023-01-13T11:27:13.022Z,9.70
2023-01-13T11:30:18.101Z,9.70
2023-01-13T11:33:07.990Z,9.50
2023-01-13T11:35:41.072Z,9.10
2023-01-13T11:38:28.547Z,9.10
2023-01-13T11:41:02.194Z,9.00
2023-01-13T11:43:56.578Z,8.90
2023-01-13T11:46:27.603Z,8.90
2023-01-13T11:48:56.381Z,9.00
2023-01-13T11:51:29.078Z,9.10
2023-01-13T11:54:12.946Z,9.20
2023-01-13T11:56:58.541Z,9.20
2023-01-13T11:59:46.762Z,9.30
2023-01-13T12:02:37.985Z,9.30
2023-01-13T12:05:13.672Z,9.40
2023-01-13T12:08:03.206Z,9.50
2023-01-13T12:10:53.355Z,9.40
2023-01-13T12:13:27.749Z,9.30
2023-01-13T12:16:12.520Z,9.30
2023-01-13T12:18:56.698Z,9.30
2023-01-13T12:21:30.414Z,9.40
2023-01-13T12:24:12.697Z,9.40
2023-01-13T12:26:41.823Z,9.30
2023-01-13T12:29:18.798Z,9.30
2023-01-13T12:31:48.857Z,9.30
2023-01-13T12:34:39.717Z,9.50
2023-01-13T12:37:12.208Z,9.50
2023-01-13T12:40:34.133Z,9.50
2023-01-13T12:43:39.013Z,9.50
2023-01-13T12:46:23.470Z,9.50
2023-01-13T12:48:59.359Z,9.50
2023-01-13T12:51:29.760Z,9.50
2023-01-13T12:53:56.810Z,9.50
2023-01-13T12:56:42.398Z,9.40
2023-01-13T12:59:23.613Z,9.50
2023-01-13T13:02:10.860Z,9.60
2023-01-13T13:04:49.674Z,9.90
2023-01-13T13:07:30.917Z,10.00
2023-01-13T13:10:06.357Z,10.10
2023-01-13T13:13:00.934Z,10.00
2023-01-13T13:15:34.112Z,10.00
2023-01-13T13:18:25.104Z,9.90
2023-01-13T13:21:12.910Z,9.90
2023-01-13T13:24:03.930Z,9.90
2023-01-13T13:26:46.705Z,9.80
2023-01-13T13:29:43.995Z,9.80
2023-01-13T13:32:39.099Z,9.90
2023-01-13T13:35:14.800Z,10.00
2023-01-13T13:38:01.765Z,10.10
2023-01-13T13:40:51.246Z,10.10
2023-01-13T13:43:38.043Z,10.20
2023-01-13T13:46:44.121Z,10.10
2023-01-13T13:49:11.879Z,10.20
2023-01-13T13:51:47.085Z,10.30
2023-01-13T13:54:19.933Z,10.30
2023-01-13T13:56:52.102Z,10.30
2023-01-13T13:59:23.211Z,10.40
2023-01-13T14:02:01.695Z,10.50
2023-01-13T14:04:33.883Z,10.50
2023-01-13T14:07:04.967Z,10.50
2023-01-13T14:09:43.980Z,10.40
2023-01-13T14:12:27.844Z,10.40
2023-01-13T14:14:57.603Z,10.30
2023-01-13T14:17:29.832Z,10.30
2023-01-13T14:20:05.172Z,10.30
2023-01-13T14:22:35.432Z,10.30
2023-01-13T14:25:22.236Z,10.30
2023-01-13T14:27:49.336Z,10.20
2023-01-13T14:30:18.715Z,10.10
2023-01-13T14:32:48.249Z,10.00
2023-01-13T14:35:17.314Z,9.90
2023-01-13T14:37:49.045Z,9.90
2023-01-13T14:40:36.154Z,9.90
2023-01-13T14:43:10.564Z,9.80
2023-01-13T14:45:47.140Z,9.80
2023-01-13T14:48:14.521Z,9.70
2023-01-13T14:50:45.931Z,9.60
2023-01-13T14:53:48.563Z,9.60
2023-01-13T14:56:38.107Z,9.30
2023-01-13T14:59:43.496Z,9.10
2023-01-13T15:02:25.168Z,8.70
2023-01-13T15:04:58.724Z,8.50
2023-01-13T15:07:28.088Z,8.50
2023-01-13T15:10:00.212Z,8.40
2023-01-13T15:12:35.751Z,8.40
2023-01-13T15:15:06.275Z,8.40
2023-01-13T15:17:38.690Z,8.30
2023-01-13T15:20:13.665Z,8.20
2023-01-13T15:22:40.385Z,8.40
2023-01-13T15:25:09.546Z,8.30
2023-01-13T15:27:39.642Z,8.20
2023-01-13T15:30:21.081Z,8.10
2023-01-13T15:32:48.029Z,8.10
2023-01-13T15:35:17.211Z,8.10
2023-01-13T15:37:45.006Z,8.10
2023-01-13T15:40:21.187Z,8.00
2023-01-13T15:43:06.575Z,8.20
2023-01-13T15:45:56.004Z,8.20
2023-01-13T15:48:27.928Z,8.30
2023-01-13T15:50:54.787Z,8.40
2023-01-13T15:53:24.429Z,8.20
2023-01-13T15:55:54.109Z,8.20
2023-01-13T15:58:24.926Z,8.30
2023-01-13T16:00:51.739Z,8.30
2023-01-13T16:03:19.081Z,8.30
2023-01-13T16:05:45.897Z,8.30
2023-01-13T16:08:20.585Z,8.40
2023-01-13T16:10:50.171Z,8.30
2023-01-13T16:13:17.736Z,8.20
2023-01-13T16:15:53.418Z,8.10
2023-01-13T16:18:24.317Z,8.00
2023-01-13T16:20:55.954Z,8.00
2023-01-13T16:23:23.104Z,7.80
2023-01-13T16:25:50.448Z,7.80
2023-01-13T16:28:23.885Z,7.80
2023-01-13T16:30:54.088Z,7.70
2023-01-13T16:33:23.198Z,7.70
2023-01-13T16:36:10.625Z,7.70
2023-01-13T16:38:38.805Z,7.80
2023-01-13T16:41:06.316Z,7.70
2023-01-13T16:43:35.623Z,7.70
2023-01-13T16:46:02.461Z,7.80
2023-01-13T16:48:33.699Z,7.70
2023-01-13T16:51:02.533Z,7.70
2023-01-13T16:53:31.500Z,7.70
2023-01-13T16:55:58.295Z,7.70
2023-01-13T16:58:25.035Z,7.80
2023-01-13T17:00:52.884Z,7.80
2023-01-13T17:03:22.167Z,7.80
2023-01-13T17:05:48.946Z,7.80
2023-01-13T17:08:19.373Z,7.80
2023-01-13T17:10:49.312Z,7.70
2023-01-13T17:13:19.571Z,7.50
2023-01-13T17:15:48.489Z,7.40
2023-01-13T17:18:15.238Z,7.30
2023-01-13T17:20:46.875Z,7.20
2023-01-13T17:23:13.707Z,7.10
2023-01-13T17:25:40.700Z,7.00
2023-01-13T17:28:12.504Z,7.00
2023-01-13T17:30:41.501Z,6.90
2023-01-13T17:33:11.125Z,6.80
2023-01-13T17:35:39.411Z,6.90
2023-01-13T17:38:06.209Z,6.90
2023-01-13T17:40:33.038Z,7.00
2023-01-13T17:42:59.836Z,7.10
2023-01-13T17:45:26.836Z,7.20
2023-01-13T17:47:57.910Z,7.30
2023-01-13T17:50:31.108Z,7.40
2023-01-13T17:53:00.362Z,7.30
2023-01-13T17:55:29.611Z,7.20
2023-01-13T17:57:56.407Z,7.30
2023-01-13T18:00:23.157Z,7.50
2023-01-13T18:02:49.899Z,7.50
2023-01-13T18:05:16.673Z,7.70
2023-01-13T18:07:43.473Z,7.80
2023-01-13T18:10:11.047Z,7.90
2023-01-13T18:12:37.847Z,8.00
2023-01-13T18:15:05.139Z,8.20
2023-01-13T18:17:34.248Z,8.40
2023-01-13T18:20:19.545Z,8.50
2023-01-13T18:23:05.022Z,8.50
2023-01-13T18:25:50.464Z,8.60
2023-01-13T18:28:17.353Z,8.70
2023-01-13T18:30:44.131Z,8.70
2023-01-13T18:33:10.904Z,8.60
2023-01-13T18:35:39.945Z,8.50
2023-01-13T18:38:07.499Z,8.40
2023-01-13T18:40:34.264Z,8.40
2023-01-13T18:43:05.641Z,8.40
2023-01-13T18:45:32.828Z,8.40
2023-01-13T18:48:11.677Z,8.50
2023-01-13T18:50:40.543Z,8.50
2023-01-13T18:53:08.002Z,8.50
2023-01-13T18:55:34.782Z,8.40
2023-01-13T18:58:01.584Z,8.50
2023-01-13T19:00:29.376Z,8.40
2023-01-13T19:05:38.043Z,8.20
2023-01-13T19:08:05.588Z,8.00
2023-01-13T19:10:32.647Z,8.10
2023-01-13T19:13:02.450Z,8.10
2023-01-13T19:15:29.648Z,8.10
2023-01-13T19:17:58.640Z,8.00
2023-01-13T19:20:25.346Z,8.00
2023-01-13T19:22:53.983Z,8.00
2023-01-13T19:25:23.385Z,8.00
2023-01-13T19:27:50.191Z,8.10
2023-01-13T19:30:23.225Z,8.10
2023-01-13T19:32:49.984Z,8.10
2023-01-13T19:35:18.110Z,8.10
2023-01-13T19:37:45.580Z,8.10
2023-01-13T19:40:15.734Z,8.00
2023-01-13T19:43:04.021Z,8.10
2023-01-13T19:45:36.106Z,8.10
2023-01-13T19:48:05.003Z,8.00
2023-01-13T19:50:38.499Z,8.00
2023-01-13T19:53:08.985Z,8.00
2023-01-13T19:55:35.808Z,7.90
2023-01-13T19:58:04.828Z,7.80
2023-01-13T20:00:31.997Z,7.80
2023-01-13T20:03:03.331Z,7.80
2023-01-13T20:05:30.261Z,7.80
2023-01-13T20:07:59.191Z,7.70
2023-01-13T20:10:31.324Z,7.60
2023-01-13T20:12:58.344Z,7.70
2023-01-13T20:15:28.270Z,7.70
2023-01-13T20:17:55.218Z,7.60
2023-01-13T20:20:22.297Z,7.50
2023-01-13T20:22:49.700Z,7.60
2023-01-13T20:25:20.177Z,7.60
2023-01-13T20:27:49.999Z,7.60
2023-01-13T20:30:17.098Z,7.50
2023-01-13T20:32:46.697Z,7.40
2023-01-13T20:35:13.999Z,7.40
2023-01-13T20:37:42.683Z,7.30
2023-01-13T20:40:13.732Z,7.40
2023-01-13T20:42:47.723Z,7.50
2023-01-13T20:45:23.352Z,7.40
2023-01-13T20:47:58.797Z,7.50
2023-01-13T20:50:28.034Z,7.60
2023-01-13T20:52:54.754Z,7.50
2023-01-13T20:55:24.378Z,7.40
2023-01-13T20:58:11.393Z,7.40
2023-01-13T21:00:40.380Z,7.50
2023-01-13T21:03:07.148Z,7.50
2023-01-13T21:05:38.177Z,7.40
2023-01-13T21:08:08.528Z,7.40
2023-01-13T21:10:43.982Z,7.20
2023-01-13T21:13:30.215Z,7.10
2023-01-13T21:15:57.043Z,7.00
2023-01-13T21:18:50.209Z,6.80
2023-01-13T21:21:29.529Z,6.60
2023-01-13T21:23:59.506Z,6.60
2023-01-13T21:26:34.991Z,6.60
2023-01-13T21:29:02.886Z,6.50
2023-01-13T21:31:35.767Z,6.50
2023-01-13T21:34:02.886Z,6.40
2023-01-13T21:36:32.553Z,6.50
2023-01-13T21:38:59.917Z,6.50
2023-01-13T21:41:45.313Z,6.60
2023-01-13T21:44:39.442Z,6.60
2023-01-13T21:47:36.195Z,6.40
2023-01-13T21:52:59.702Z,6.40
2023-01-13T21:55:38.487Z,6.40
2023-01-13T21:58:38.437Z,6.60
2023-01-13T22:01:13.647Z,6.70
2023-01-13T22:04:08.800Z,6.70
2023-01-13T22:06:46.849Z,6.70
2023-01-13T22:09:36.437Z,6.70
2023-01-13T22:12:06.217Z,6.70
2023-01-13T22:14:36.282Z,6.70
2023-01-13T22:17:04.093Z,6.70
2023-01-13T22:19:49.551Z,6.70
2023-01-13T22:22:18.711Z,6.90
2023-01-13T22:25:05.933Z,7.00
2023-01-13T22:27:45.026Z,7.00
2023-01-13T22:30:21.641Z,7.00
2023-01-13T22:32:51.804Z,6.90
2023-01-13T22:35:18.802Z,6.90
2023-01-13T22:37:47.753Z,7.00
2023-01-13T22:40:16.954Z,7.20
2023-01-13T22:42:43.772Z,7.20
2023-01-13T22:45:14.049Z,7.20
2023-01-13T22:47:43.161Z,7.10
2023-01-13T22:50:10.334Z,7.00
2023-01-13T22:52:37.122Z,6.90
2023-01-13T22:55:06.834Z,6.90
2023-01-13T22:57:47.365Z,6.80
2023-01-13T23:00:18.663Z,6.80
2023-01-13T23:02:45.384Z,6.70
2023-01-13T23:05:13.672Z,6.70
2023-01-13T23:07:40.478Z,6.70
2023-01-13T23:10:07.439Z,6.80
2023-01-13T23:12:36.751Z,6.70
2023-01-13T23:15:05.247Z,6.90
2023-01-13T23:17:32.018Z,6.90
2023-01-13T23:19:58.753Z,6.80
2023-01-13T23:22:25.558Z,6.60
2023-01-13T23:24:54.459Z,6.50
2023-01-13T23:27:21.232Z,6.40
2023-01-13T23:29:49.026Z,6.40
2023-01-13T23:32:15.818Z,6.40
2023-01-13T23:34:44.916Z,6.30
2023-01-13T23:37:11.682Z,6.20
2023-01-13T23:39:40.707Z,6.20
2023-01-13T23:42:07.474Z,6.10
2023-01-13T23:44:36.284Z,6.10
2023-01-13T23:47:03.250Z,6.00
2023-01-13T23:49:30.269Z,5.90
2023-01-13T23:51:57.167Z,5.90
2023-01-13T23:54:23.973Z,5.90
2023-01-13T23:56:52.478Z,5.90
2023-01-13T23:59:24.629Z,5.80
